Time;durP1;ratioP1;P1;durP2;ratioP2;P2;SDS_P1;SDS_P2;PMS_P1;PMS_P2;Temp;Humidity;BMP_temperature;BMP_pressure;BME280_temperature;BME280_humidity;BME280_pressure;Samples;Min_cycle;Max_cycle;Signal;HPM_P1;HPM_P2
2021/08/27 00:00:39;;;;;;;;;5.75;4.75;;;;;17.49;56.75;101094.84;5058287;28;55128;-59
2021/08/27 00:03:04;;;;;;;;;7.00;5.00;;;;;17.49;56.85;101100.16;5076845;28;68276;-58
2021/08/27 00:05:30;;;;;;;;;6.00;5.25;;;;;17.47;56.68;101097.69;5077997;28;45510;-59
2021/08/27 00:07:55;;;;;;;;;7.50;5.25;;;;;17.48;56.67;101098.53;5077743;28;45396;-60
2021/08/27 00:10:20;;;;;;;;;8.25;3.25;;;;;17.46;56.81;101095.22;5076937;28;64319;-59
2021/08/27 00:12:46;;;;;;;;;6.75;4.00;;;;;17.46;56.81;101095.22;5076771;28;69347;-60
2021/08/27 00:15:11;;;;;;;;;5.50;3.50;;;;;17.43;56.92;101093.69;5077174;28;45446;-60
2021/08/27 00:17:37;;;;;;;;;5.75;5.00;;;;;17.43;56.86;101093.69;5077711;28;45491;-60
2021/08/27 00:20:03;;;;;;;;;6.00;3.00;;;;;17.43;56.86;101096.34;5077433;28;46225;-61
2021/08/27 00:22:29;;;;;;;;;6.00;5.00;;;;;17.42;56.73;101094.69;5055505;28;45329;-60
2021/08/27 00:24:54;;;;;;;;;6.50;4.75;;;;;17.42;57.03;101088.56;5055845;28;45394;-59
2021/08/27 00:27:20;;;;;;;;;5.50;5.00;;;;;17.42;57.26;101089.38;5057061;28;45585;-60
2021/08/27 00:29:45;;;;;;;;;7.75;5.00;;;;;17.41;57.22;101092.22;5056815;28;50388;-61
2021/08/27 00:32:10;;;;;;;;;10.00;5.25;;;;;17.39;57.18;101091.56;5056783;28;53968;-59
2021/08/27 00:34:36;;;;;;;;;4.75;2.00;;;;;17.38;57.39;101087.25;5056559;28;61725;-61
2021/08/27 00:37:04;;;;;;;;;5.00;5.00;;;;;17.33;57.57;101080.59;5057336;28;45533;-59
2021/08/27 00:39:29;;;;;;;;;9.00;5.25;;;;;17.30;57.57;101078.28;5056806;28;46209;-59
2021/08/27 00:41:54;;;;;;;;;7.25;5.75;;;;;17.26;57.74;101076.09;5056420;28;53382;-60
2021/08/27 00:44:20;;;;;;;;;8.00;4.00;;;;;17.23;57.65;101077.28;5056045;28;68549;-60
2021/08/27 00:46:45;;;;;;;;;4.00;4.00;;;;;17.18;57.91;101077.78;5055947;28;59775;-60
2021/08/27 00:49:10;;;;;;;;;4.00;4.00;;;;;17.13;58.08;101079.28;5055870;28;69355;-61
2021/08/27 00:51:36;;;;;;;;;8.25;4.50;;;;;17.10;58.24;101071.63;5055835;28;69417;-59
2021/08/27 00:54:01;;;;;;;;;6.00;4.00;;;;;17.04;58.13;101081.91;5054957;28;62250;-60
2021/08/27 00:56:28;;;;;;;;;5.50;5.50;;;;;17.01;58.68;101090.22;5055593;28;45276;-59
2021/08/27 00:58:54;;;;;;;;;7.50;4.25;;;;;16.98;58.39;101082.56;5056544;28;45310;-60
2021/08/27 01:01:19;;;;;;;;;5.75;4.00;;;;;16.94;58.73;101075.09;5054586;28;64049;-59
2021/08/27 01:03:45;;;;;;;;;7.00;5.50;;;;;16.91;58.79;101071.78;5056791;28;45774;-60
2021/08/27 01:06:25;;;;;;;;;7.75;5.00;;;;;16.89;59.12;101073.75;5055499;28;45408;-59
2021/08/27 01:09:01;;;;;;;;;6.25;4.50;;;;;16.85;59.03;101072.44;5055316;28;45441;-60
2021/08/27 01:11:43;;;;;;;;;6.00;5.00;;;;;16.83;59.11;101066.44;5055344;28;45877;-59
2021/08/27 01:14:26;;;;;;;;;10.75;5.00;;;;;16.80;59.23;101068.63;5054726;28;45286;-60
2021/08/27 01:16:53;;;;;;;;;10.00;6.00;;;;;16.75;59.10;101064.63;5054774;28;45602;-59
2021/08/27 01:20:01;;;;;;;;;6.75;5.00;;;;;16.74;59.59;101064.78;5038026;28;45346;-60
2021/08/27 01:23:00;;;;;;;;;6.50;6.00;;;;;16.71;59.29;101062.44;5035135;28;45485;-59
2021/08/27 01:25:26;;;;;;;;;10.50;5.00;;;;;16.69;59.57;101056.50;5055377;28;45443;-61
2021/08/27 01:27:52;;;;;;;;;5.50;5.00;;;;;16.66;59.60;101062.94;5038666;28;45606;-61
2021/08/27 01:30:28;;;;;;;;;5.75;5.00;;;;;16.63;59.58;101052.66;5054984;28;46220;-60
2021/08/27 01:32:57;;;;;;;;;5.00;4.25;;;;;16.59;59.85;101052.19;5055056;28;49227;-60
2021/08/27 01:35:24;;;;;;;;;11.75;6.50;;;;;16.56;59.95;101056.97;5038867;28;45401;-60
2021/08/27 01:37:51;;;;;;;;;9.00;5.50;;;;;16.56;60.12;101056.97;5020822;28;67557;-60
2021/08/27 01:40:16;;;;;;;;;6.50;4.00;;;;;16.50;60.12;101057.59;5056091;28;46049;-60
2021/08/27 01:42:42;;;;;;;;;7.00;4.00;;;;;16.46;59.93;101063.22;5037670;28;45299;-59
2021/08/27 01:45:08;;;;;;;;;7.75;5.75;;;;;16.42;60.32;101059.28;5038040;28;47410;-60
2021/08/27 01:47:33;;;;;;;;;6.50;5.50;;;;;16.40;60.21;101058.59;5056198;28;45339;-60
2021/08/27 01:49:59;;;;;;;;;5.25;4.75;;;;;16.38;60.68;101060.59;5054774;28;45283;-59
2021/08/27 01:52:24;;;;;;;;;10.50;6.50;;;;;16.32;60.32;101061.22;5054765;28;45205;-60
2021/08/27 01:54:50;;;;;;;;;8.50;5.25;;;;;16.30;60.66;101049.94;5037061;28;69364;-60
2021/08/27 01:57:15;;;;;;;;;5.50;4.25;;;;;16.28;60.69;101057.22;5038168;28;45352;-61
2021/08/27 01:59:42;;;;;;;;;6.00;4.50;;;;;16.25;60.84;101060.19;5057862;28;52681;-60
2021/08/27 02:02:08;;;;;;;;;6.00;5.50;;;;;16.22;60.79;101064.00;5058171;28;45976;-60
2021/08/27 02:04:35;;;;;;;;;10.25;4.75;;;;;16.21;60.77;101066.81;5041656;28;45285;-59
2021/08/27 02:07:00;;;;;;;;;6.00;5.00;;;;;16.21;61.14;101059.69;5058408;28;45186;-60
2021/08/27 02:09:26;;;;;;;;;6.75;5.75;;;;;16.17;60.97;101064.47;5041422;28;45288;-60
2021/08/27 02:11:51;;;;;;;;;9.00;5.75;;;;;16.15;60.93;101061.16;5059181;28;45374;-60
2021/08/27 02:14:16;;;;;;;;;7.50;6.50;;;;;16.14;61.16;101067.44;5040562;28;63811;-60
2021/08/27 02:16:42;;;;;;;;;10.25;6.00;;;;;16.11;61.34;101062.47;5058390;28;62381;-60
2021/08/27 02:19:07;;;;;;;;;8.50;6.00;;;;;16.09;61.68;101059.16;5057444;28;57248;-60
2021/08/27 02:21:38;;;;;;;;;5.50;3.75;;;;;16.11;61.30;101065.13;5056888;28;66595;-60
2021/08/27 02:24:05;;;;;;;;;8.50;6.50;;;;;16.11;61.29;101065.13;5058218;28;45399;-60
2021/08/27 02:26:31;;;;;;;;;9.25;6.00;;;;;16.11;61.43;101072.25;5057948;28;45594;-60
2021/08/27 02:28:56;;;;;;;;;5.75;5.25;;;;;16.12;61.63;101072.09;5040339;28;67310;-61
2021/08/27 02:31:21;;;;;;;;;6.75;5.50;;;;;16.13;61.55;101078.22;5040939;28;45257;-61
2021/08/27 02:33:47;;;;;;;;;9.00;5.00;;;;;16.12;61.98;101074.72;5039925;28;68109;-60
2021/08/27 02:36:16;;;;;;;;;6.00;5.00;;;;;16.13;61.41;101079.03;5040195;28;66017;-60
2021/08/27 02:38:43;;;;;;;;;7.25;6.25;;;;;16.12;61.49;101071.25;5057562;28;45330;-59
2021/08/27 02:41:08;;;;;;;;;9.25;5.00;;;;;16.12;61.75;101074.72;5040380;28;51418;-61
2021/08/27 02:43:33;;;;;;;;;9.25;5.25;;;;;16.10;61.71;101071.41;5058983;28;45501;-60
2021/08/27 02:45:59;;;;;;;;;5.50;4.75;;;;;16.11;62.06;101080.22;5057952;28;63986;-60
2021/08/27 02:48:24;;;;;;;;;6.25;4.75;;;;;16.09;62.10;101071.59;5057387;28;74106;-60
2021/08/27 02:51:10;;;;;;;;;6.00;5.00;;;;;16.10;62.01;101073.25;5058521;28;45392;-61
2021/08/27 02:53:37;;;;;;;;;7.25;6.00;;;;;16.10;61.77;101068.75;5057561;28;45371;-60
2021/08/27 02:56:04;;;;;;;;;8.75;6.00;;;;;16.08;61.93;101073.38;5057474;28;45256;-60
2021/08/27 02:58:32;;;;;;;;;8.25;6.00;;;;;16.08;61.91;101068.09;5057447;28;45398;-60
2021/08/27 03:01:04;;;;;;;;;7.75;6.00;;;;;16.07;62.13;101069.06;5057311;28;45429;-60
2021/08/27 03:03:31;;;;;;;;;4.25;4.00;;;;;16.06;62.08;101074.56;5057496;28;45317;-60
2021/08/27 03:06:00;;;;;;;;;10.00;4.00;;;;;16.06;62.02;101064.75;5058680;28;45354;-60
2021/08/27 03:08:25;;;;;;;;;12.75;6.75;;;;;16.04;62.14;101074.69;5057114;28;45784;-60
2021/08/27 03:11:03;;;;;;;;;10.75;8.75;;;;;16.04;62.54;101058.78;5040225;28;45249;-61
2021/08/27 03:13:34;;;;;;;;;6.75;5.50;;;;;16.05;62.58;101059.63;5058540;28;45316;-60
2021/08/27 03:16:01;;;;;;;;;14.00;5.00;;;;;16.05;62.78;101063.09;5057028;28;45420;-60
2021/08/27 03:18:31;;;;;;;;;7.25;6.25;;;;;16.05;62.25;101060.44;5058111;28;46305;-61
2021/08/27 03:21:09;;;;;;;;;6.00;6.00;;;;;16.04;62.47;101057.97;5056600;28;45886;-60
2021/08/27 03:23:34;;;;;;;;;11.50;6.75;;;;;16.04;62.54;101064.09;5040772;28;45443;-60
2021/08/27 03:26:01;;;;;;;;;15.75;6.00;;;;;16.05;62.85;101064.94;5056254;28;62510;-61
2021/08/27 03:28:27;;;;;;;;;9.50;6.00;;;;;16.05;62.82;101063.09;5057986;28;45398;-60
2021/08/27 03:30:53;;;;;;;;;10.75;5.75;;;;;16.05;63.02;101065.75;5056829;28;45332;-60
2021/08/27 03:33:18;;;;;;;;;7.75;5.00;;;;;16.04;63.09;101057.97;5057001;28;45393;-60
2021/08/27 03:35:44;;;;;;;;;10.75;8.25;;;;;16.04;62.80;101058.78;5040049;28;45227;-60
2021/08/27 03:38:10;;;;;;;;;12.00;7.00;;;;;16.04;62.66;101068.56;5055674;28;72380;-60
2021/08/27 03:40:35;;;;;;;;;12.50;7.00;;;;;16.04;62.92;101060.63;5056712;28;45814;-60
2021/08/27 03:43:01;;;;;;;;;12.25;8.25;;;;;16.02;62.87;101058.13;5056035;28;57888;-60
2021/08/27 03:45:26;;;;;;;;;8.25;6.00;;;;;16.04;62.73;101061.44;5039114;28;64475;-59
2021/08/27 03:47:52;;;;;;;;;11.25;7.50;;;;;16.01;63.12;101061.75;5056647;28;73988;-60
2021/08/27 03:50:17;;;;;;;;;12.00;7.00;;;;;15.98;62.96;101065.56;5056603;28;45339;-60
2021/08/27 03:52:43;;;;;;;;;7.75;6.00;;;;;15.96;63.39;101061.41;5039898;28;45317;-60
2021/08/27 03:55:09;;;;;;;;;9.50;6.50;;;;;15.95;63.21;101065.03;5056319;28;45600;-60
2021/08/27 03:57:35;;;;;;;;;6.75;5.00;;;;;15.92;63.23;101065.34;5039380;28;48578;-60
2021/08/27 04:00:00;;;;;;;;;5.75;5.50;;;;;15.91;63.66;101067.19;5039496;28;45590;-59
2021/08/27 04:02:27;;;;;;;;;12.75;7.50;;;;;15.90;63.57;101062.06;5055287;28;64938;-61
2021/08/27 04:05:08;;;;;;;;;6.00;4.75;;;;;15.87;63.42;101060.53;5057612;28;45292;-59
2021/08/27 04:07:33;;;;;;;;;8.75;6.00;;;;;15.85;63.49;101054.53;5057449;28;46050;-61
2021/08/27 04:09:58;;;;;;;;;9.50;5.00;;;;;15.83;63.40;101056.50;5056540;28;68699;-60
2021/08/27 04:12:24;;;;;;;;;6.75;6.75;;;;;15.80;63.87;101054.16;5055360;28;69254;-61
2021/08/27 04:14:49;;;;;;;;;6.25;5.00;;;;;15.77;64.07;101055.34;5056486;28;63770;-60
2021/08/27 04:17:14;;;;;;;;;7.25;6.00;;;;;15.76;64.02;101058.13;5056519;28;67468;-60
2021/08/27 04:19:40;;;;;;;;;10.50;7.00;;;;;15.73;63.96;101057.44;5056526;28;68285;-60
2021/08/27 04:22:05;;;;;;;;;6.25;5.25;;;;;15.73;64.23;101061.94;5070073;28;63196;-60
2021/08/27 04:24:31;;;;;;;;;10.75;5.50;;;;;15.74;64.06;101058.28;5076735;28;67664;-61
2021/08/27 04:26:56;;;;;;;;;6.50;6.50;;;;;15.74;64.14;101050.34;5076539;28;71023;-60
2021/08/27 04:29:21;;;;;;;;;7.00;5.25;;;;;15.74;64.14;101058.28;5076667;28;64397;-61
2021/08/27 04:31:47;;;;;;;;;6.75;5.25;;;;;15.75;64.40;101054.66;5077567;28;45263;-59
2021/08/27 04:34:12;;;;;;;;;10.50;5.75;;;;;15.74;64.53;101053.00;5077340;28;45462;-61
2021/08/27 04:36:37;;;;;;;;;9.25;7.75;;;;;15.75;64.29;101044.06;5076942;28;55191;-61
2021/08/27 04:39:03;;;;;;;;;8.75;7.25;;;;;15.75;64.77;101052.00;5076251;28;73293;-60
2021/08/27 04:41:28;;;;;;;;;9.50;7.00;;;;;15.75;64.18;101054.66;5077206;28;45210;-61
2021/08/27 04:43:54;;;;;;;;;12.50;9.00;;;;;15.77;64.68;101057.13;5076282;28;68630;-60
2021/08/27 04:46:20;;;;;;;;;11.25;7.25;;;;;15.77;64.53;101063.28;5076044;28;72122;-60
2021/08/27 04:48:45;;;;;;;;;9.25;5.00;;;;;15.76;64.93;101060.78;5076786;28;45808;-60
2021/08/27 04:51:10;;;;;;;;;11.00;5.75;;;;;15.77;64.67;101067.72;5077352;28;45544;-60
2021/08/27 04:53:36;;;;;;;;;11.75;8.25;;;;;15.77;64.40;101065.94;5076505;28;65240;-61
2021/08/27 04:56:01;;;;;;;;;10.50;6.25;;;;;15.75;64.67;101057.31;5075980;28;70275;-60
2021/08/27 04:58:26;;;;;;;;;10.75;5.50;;;;;15.73;64.96;101068.03;5076661;28;53104;-61
2021/08/27 05:00:52;;;;;;;;;11.00;6.50;;;;;15.75;64.76;101056.47;5076589;28;55250;-59
2021/08/27 05:03:19;;;;;;;;;6.75;5.75;;;;;15.76;64.67;101063.41;5077021;28;45367;-60
2021/08/27 05:05:44;;;;;;;;;7.75;5.50;;;;;15.75;64.83;101070.56;5076894;28;45312;-60
2021/08/27 05:08:09;;;;;;;;;11.00;6.25;;;;;15.74;65.08;101071.53;5076768;28;45454;-60
2021/08/27 05:10:35;;;;;;;;;7.50;5.50;;;;;15.76;65.30;101085.47;5077167;28;45702;-60
2021/08/27 05:13:00;;;;;;;;;11.25;7.00;;;;;15.74;65.22;101090.09;5076058;28;64778;-60
2021/08/27 05:15:26;;;;;;;;;8.25;7.00;;;;;15.73;65.33;101088.44;5075850;28;72045;-60
2021/08/27 05:17:51;;;;;;;;;8.50;7.00;;;;;15.72;65.03;101086.75;5076681;28;45406;-60
2021/08/27 05:20:16;;;;;;;;;10.00;8.50;;;;;15.71;65.44;101090.41;5075977;28;64775;-60
2021/08/27 05:22:42;;;;;;;;;10.50;7.50;;;;;15.70;65.04;101094.03;5075848;28;60506;-60
2021/08/27 05:25:08;;;;;;;;;9.00;8.00;;;;;15.71;65.09;101101.00;5075747;28;67486;-60
2021/08/27 05:27:37;;;;;;;;;13.00;7.00;;;;;15.69;65.15;101098.47;5076467;28;45166;-61
2021/08/27 05:30:05;;;;;;;;;10.50;8.75;;;;;15.69;65.21;101108.25;5076689;28;45281;-59
2021/08/27 05:32:30;;;;;;;;;12.00;7.00;;;;;15.70;65.33;101109.94;5076663;28;45216;-60
2021/08/27 05:34:56;;;;;;;;;8.75;8.50;;;;;15.70;65.74;101112.56;5078091;28;75674;-59
2021/08/27 05:37:21;;;;;;;;;11.75;7.00;;;;;15.70;65.78;101105.44;5079237;28;68785;-60
2021/08/27 05:39:46;;;;;;;;;9.50;7.00;;;;;15.72;65.50;101113.25;5080001;28;45251;-60
2021/08/27 05:42:12;;;;;;;;;15.25;10.50;;;;;15.72;65.84;101114.06;5079739;28;45562;-60
2021/08/27 05:44:37;;;;;;;;;9.75;8.50;;;;;15.75;65.60;101114.75;5079218;28;67341;-60
2021/08/27 05:47:03;;;;;;;;;9.50;8.00;;;;;15.76;65.47;101119.91;5079418;28;59540;-60
2021/08/27 05:49:28;;;;;;;;;8.50;6.75;;;;;15.80;65.80;101128.38;5080116;28;45224;-60
2021/08/27 05:51:54;;;;;;;;;12.50;8.75;;;;;15.82;65.44;101121.94;5079916;28;45192;-59
2021/08/27 05:54:19;;;;;;;;;10.25;7.00;;;;;15.84;65.76;101119.97;5078605;28;70869;-59
2021/08/27 05:56:45;;;;;;;;;10.75;7.00;;;;;15.89;65.58;101129.28;5061452;28;45387;-60
2021/08/27 05:59:11;;;;;;;;;11.50;8.50;;;;;15.94;65.33;101124.31;5079938;28;45403;-60
2021/08/27 06:01:36;;;;;;;;;12.25;7.50;;;;;15.97;65.54;101131.97;5079668;28;45617;-59
2021/08/27 06:04:01;;;;;;;;;15.50;10.50;;;;;16.02;65.65;101125.22;5078679;28;70698;-59
2021/08/27 06:06:27;;;;;;;;;13.00;10.00;;;;;16.07;65.50;101132.69;5078707;28;73329;-59
2021/08/27 06:08:52;;;;;;;;;13.75;9.75;;;;;16.12;65.68;101135.69;5079882;28;45324;-59
2021/08/27 06:11:18;;;;;;;;;11.25;8.25;;;;;16.20;65.76;101136.75;5079462;28;45298;-60
2021/08/27 06:13:43;;;;;;;;;16.00;12.00;;;;;16.27;65.60;101143.06;5078668;28;67306;-59
2021/08/27 06:16:08;;;;;;;;;15.75;12.00;;;;;16.34;65.71;101140.59;5078406;28;70856;-59
2021/08/27 06:18:34;;;;;;;;;9.75;9.00;;;;;16.40;65.47;101148.78;5078786;28;59848;-60
2021/08/27 06:20:59;;;;;;;;;14.25;11.00;;;;;16.44;65.82;101139.47;5079403;28;45396;-59
2021/08/27 06:23:25;;;;;;;;;11.75;9.25;;;;;16.51;65.68;101144.16;5078176;28;75631;-59
2021/08/27 06:25:50;;;;;;;;;17.25;9.75;;;;;16.55;65.20;101143.69;5079360;28;45289;-60
2021/08/27 06:28:16;;;;;;;;;13.00;9.50;;;;;16.59;65.43;101152.97;5078410;28;66792;-59
2021/08/27 06:30:41;;;;;;;;;14.25;11.00;;;;;16.66;65.42;101147.84;5079408;28;45143;-59
2021/08/27 06:33:07;;;;;;;;;12.25;9.25;;;;;16.75;65.19;101141.59;5079160;28;45291;-59
2021/08/27 06:35:32;;;;;;;;;10.00;9.50;;;;;16.86;64.82;101145.75;5079349;28;45250;-59
2021/08/27 06:40:43;;;;;;;;;11.25;8.75;;;;;17.02;64.82;101155.59;5079203;28;45320;-60
2021/08/27 06:43:08;;;;;;;;;17.50;11.75;;;;;17.11;64.37;101160.91;5078901;28;45262;-60
2021/08/27 06:45:33;;;;;;;;;14.50;9.00;;;;;17.23;64.36;101159.59;5059495;28;61801;-60
2021/08/27 06:47:59;;;;;;;;;15.25;10.00;;;;;17.34;64.14;101166.41;5078567;28;55166;-60
2021/08/27 06:50:25;;;;;;;;;14.50;9.25;;;;;17.46;63.87;101164.28;5079151;28;45569;-60
2021/08/27 06:52:51;;;;;;;;;16.00;11.25;;;;;17.58;63.39;101172.75;5078840;28;45418;-60
2021/08/27 06:55:16;;;;;;;;;15.25;9.25;;;;;17.69;63.15;101166.25;5078990;28;45914;-60
2021/08/27 06:57:42;;;;;;;;;15.25;11.50;;;;;17.77;62.90;101169.72;5078214;28;64182;-61
2021/08/27 07:00:07;;;;;;;;;12.50;9.50;;;;;17.89;62.49;101159.59;5077855;28;69356;-60
2021/08/27 07:02:33;;;;;;;;;10.00;10.00;;;;;17.98;61.79;101164.88;5078447;28;48451;-60
2021/08/27 07:04:58;;;;;;;;;13.00;11.00;;;;;18.10;61.95;101171.50;5060644;28;45451;-60
2021/08/27 07:07:24;;;;;;;;;12.50;10.25;;;;;18.24;61.44;101170.81;5077932;28;66871;-60
2021/08/27 07:09:49;;;;;;;;;12.75;10.75;;;;;18.36;60.87;101173.91;5078269;28;55439;-60
2021/08/27 07:12:15;;;;;;;;;14.00;10.00;;;;;18.50;60.62;101168.88;5077302;28;73350;-60
2021/08/27 07:14:42;;;;;;;;;19.00;10.50;;;;;18.64;60.20;101177.97;5060301;28;45412;-60
2021/08/27 07:17:07;;;;;;;;;14.50;11.25;;;;;18.70;59.55;101179.94;5078791;28;45425;-60
2021/08/27 07:19:33;;;;;;;;;14.00;11.25;;;;;18.74;59.47;101183.91;5077751;28;62851;-60
2021/08/27 07:21:58;;;;;;;;;17.00;12.25;;;;;18.77;59.21;101183.56;5077206;28;71728;-60
2021/08/27 07:24:23;;;;;;;;;10.75;8.75;;;;;18.79;58.84;101186.88;5077557;28;68250;-60
2021/08/27 07:26:49;;;;;;;;;18.25;10.25;;;;;18.81;58.85;101184.06;5077617;28;61212;-61
2021/08/27 07:29:14;;;;;;;;;14.75;13.00;;;;;18.76;58.58;101187.22;5077594;28;63225;-59
2021/08/27 07:31:39;;;;;;;;;12.50;10.00;;;;;18.72;58.43;101180.59;5078272;28;45902;-60
2021/08/27 07:34:05;;;;;;;;;12.50;9.00;;;;;18.69;58.46;101180.94;5077861;28;49011;-60
2021/08/27 07:36:30;;;;;;;;;10.00;9.00;;;;;18.66;58.54;101178.63;5082623;27;64669;-60
2021/08/27 07:38:55;;;;;;;;;14.00;9.00;;;;;18.70;58.09;101190.59;5092636;27;66188;-59
2021/08/27 07:41:21;;;;;;;;;15.75;8.75;;;;;18.74;58.25;101193.75;5089933;27;46946;-60
2021/08/27 07:43:46;;;;;;;;;11.00;9.25;;;;;18.79;58.21;101204.69;5076304;27;64876;-60
2021/08/27 07:46:12;;;;;;;;;9.00;8.25;;;;;18.78;57.79;101201.19;5074014;27;69221;-60
2021/08/27 07:48:37;;;;;;;;;11.75;7.00;;;;;18.79;57.73;101202.03;5089129;27;67025;-60
2021/08/27 07:51:02;;;;;;;;;14.00;8.50;;;;;18.82;57.76;101207.00;5091188;27;73342;-60
2021/08/27 07:53:28;;;;;;;;;12.00;7.50;;;;;18.86;57.22;101210.16;5092712;27;45569;-60
2021/08/27 07:55:53;;;;;;;;;8.75;8.25;;;;;18.84;56.95;101204.97;5086979;27;45450;-60
2021/08/27 07:58:18;;;;;;;;;9.25;7.75;;;;;18.84;56.67;101205.81;5089026;27;66018;-60
2021/08/27 08:00:45;;;;;;;;;11.25;7.75;;;;;18.89;56.70;101201.81;5089037;27;71030;-60
2021/08/27 08:03:10;;;;;;;;;7.50;5.25;;;;;18.96;56.02;101210.78;5090526;27;45996;-60
2021/08/27 08:05:35;;;;;;;;;9.25;4.50;;;;;19.00;55.49;101211.25;5087974;27;54992;-59
2021/08/27 08:08:01;;;;;;;;;7.00;5.50;;;;;19.05;55.34;101211.56;5085469;27;48089;-59
2021/08/27 08:10:26;;;;;;;;;6.25;6.00;;;;;19.09;55.33;101213.69;5087075;27;52596;-60
2021/08/27 08:12:52;;;;;;;;;8.75;6.00;;;;;19.15;55.25;101221.97;5086404;27;73290;-61
2021/08/27 08:15:20;;;;;;;;;11.00;6.25;;;;;19.17;54.94;101220.81;5084082;27;64274;-60
2021/08/27 08:17:46;;;;;;;;;6.25;5.00;;;;;19.21;54.76;101219.47;5088137;27;45993;-60
2021/08/27 08:20:12;;;;;;;;;6.00;5.00;;;;;19.24;54.48;101207.63;5083075;27;71665;-61
2021/08/27 08:22:37;;;;;;;;;8.00;5.25;;;;;19.26;54.37;101213.59;5082422;27;46607;-60
2021/08/27 08:25:02;;;;;;;;;6.00;4.00;;;;;19.30;54.36;101217.56;5083189;27;47849;-60
2021/08/27 08:27:33;;;;;;;;;8.50;8.50;;;;;19.33;53.94;101222.53;5082119;27;45606;-60
2021/08/27 08:29:58;;;;;;;;;8.00;6.00;;;;;19.39;54.17;101218.31;5082771;27;46321;-60
2021/08/27 08:32:24;;;;;;;;;6.75;6.00;;;;;19.46;54.11;101221.13;5079585;27;68434;-60
2021/08/27 08:34:49;;;;;;;;;5.50;5.50;;;;;19.60;53.59;101225.69;5062183;27;67399;-60
2021/08/27 08:37:14;;;;;;;;;6.75;5.25;;;;;19.79;53.40;101224.34;5063282;27;66246;-60
2021/08/27 08:39:40;;;;;;;;;10.25;7.00;;;;;20.02;53.53;101240.34;5078290;27;45892;-60
2021/08/27 08:42:05;;;;;;;;;7.50;6.00;;;;;20.27;52.71;101233.94;5075125;27;67166;-60
2021/08/27 08:44:31;;;;;;;;;7.75;5.25;;;;;20.49;52.20;101226.00;5091903;27;48850;-60
2021/08/27 08:46:57;;;;;;;;;6.50;5.75;;;;;20.72;52.23;101223.19;5090842;27;45490;-60
2021/08/27 08:49:24;;;;;;;;;6.75;6.00;;;;;20.94;51.31;101220.63;5091271;27;73979;-60
2021/08/27 08:51:51;;;;;;;;;9.25;6.00;;;;;21.14;50.90;101220.84;5056385;27;45546;-60
2021/08/27 08:54:17;;;;;;;;;6.00;4.00;;;;;21.28;50.30;101216.44;5091716;27;45429;-60
2021/08/27 08:56:43;;;;;;;;;4.25;4.25;;;;;21.43;49.35;101225.25;5089310;27;59340;-60
2021/08/27 08:59:08;;;;;;;;;5.75;3.50;;;;;21.61;48.55;101223.97;5089921;27;45941;-60
2021/08/27 09:01:34;;;;;;;;;7.00;4.00;;;;;21.68;47.69;101219.53;5074948;27;51282;-61
2021/08/27 09:03:59;;;;;;;;;6.00;3.00;;;;;21.74;47.31;101205.34;5093646;27;59536;-60
2021/08/27 09:06:25;;;;;;;;;4.25;2.50;;;;;21.86;46.98;101221.72;5088678;27;67984;-61
2021/08/27 09:08:52;;;;;;;;;4.75;1.50;;;;;22.01;46.56;101221.63;5085288;27;60878;-60
2021/08/27 09:11:24;;;;;;;;;5.00;3.75;;;;;22.22;45.52;101225.25;5085032;27;45470;-61
2021/08/27 09:13:51;;;;;;;;;18.25;16.75;;;;;22.38;45.01;101227.59;5082381;27;45494;-61
2021/08/27 09:16:17;;;;;;;;;2.75;1.00;;;;;22.56;44.09;101228.97;5081045;27;48559;-61
2021/08/27 09:18:44;;;;;;;;;4.00;2.00;;;;;22.65;43.58;101234.97;5075638;27;46004;-61
2021/08/27 09:21:25;;;;;;;;;1.00;0.25;;;;;22.77;43.24;101230.69;5076123;27;45472;-60
2021/08/27 09:23:50;;;;;;;;;2.00;2.00;;;;;22.90;43.47;101226.41;5077932;27;45461;-60
2021/08/27 09:26:34;;;;;;;;;5.00;2.75;;;;;23.11;43.24;101225.44;5077581;27;45532;-61
2021/08/27 09:28:59;;;;;;;;;3.00;2.00;;;;;23.22;41.52;101227.56;5077423;27;45391;-60
2021/08/27 09:31:34;;;;;;;;;1.25;1.25;;;;;23.35;41.83;101231.25;5077147;27;73564;-61
2021/08/27 09:33:59;;;;;;;;;1.00;1.00;;;;;23.51;41.87;101230.88;5080255;27;45558;-60
2021/08/27 09:36:25;;;;;;;;;1.50;1.50;;;;;23.70;40.66;101228.41;5089023;27;47623;-60
2021/08/27 09:39:07;;;;;;;;;3.25;2.75;;;;;23.92;40.66;101236.22;5065162;27;69428;-60
2021/08/27 09:41:34;;;;;;;;;1.00;1.00;;;;;24.07;39.94;101254.84;5083197;27;45407;-60
2021/08/27 09:43:59;;;;;;;;;2.00;2.00;;;;;24.18;38.74;101242.63;5090050;27;45692;-62
2021/08/27 09:46:28;;;;;;;;;0.75;0.25;;;;;24.28;38.71;101237.66;5073527;27;70250;-61
2021/08/27 09:48:53;;;;;;;;;2.00;0.75;;;;;24.36;38.42;101242.81;5088894;27;45316;-61
2021/08/27 09:51:38;;;;;;;;;1.25;1.25;;;;;24.42;38.28;101251.88;5090755;27;71973;-60
2021/08/27 09:54:03;;;;;;;;;0.50;0.50;;;;;24.46;38.41;101245.03;5068214;27;45323;-61
2021/08/27 09:56:45;;;;;;;;;0.50;0.25;;;;;24.48;37.90;101251.03;5069042;27;69399;-61
2021/08/27 09:59:11;;;;;;;;;2.00;0.00;;;;;24.39;37.40;101242.34;5087675;27;45433;-61
2021/08/27 10:01:49;;;;;;;;;0.75;0.75;;;;;24.39;37.71;101250.41;5069582;27;50731;-61
2021/08/27 10:04:15;;;;;;;;;2.00;1.00;;;;;24.45;36.20;101252.25;5090453;27;45295;-61
2021/08/27 10:06:40;;;;;;;;;1.00;1.00;;;;;24.55;35.87;101248.31;5091370;27;45470;-60
2021/08/27 10:09:06;;;;;;;;;1.00;1.00;;;;;24.60;36.13;101248.50;5085252;27;45383;-60
2021/08/27 10:11:31;;;;;;;;;2.00;1.00;;;;;24.66;35.86;101238.75;5085026;27;45472;-60
2021/08/27 10:13:57;;;;;;;;;0.75;0.75;;;;;24.67;35.82;101235.88;5039748;27;45532;-61
2021/08/27 10:16:22;;;;;;;;;2.00;2.00;;;;;24.73;36.05;101239.59;5089574;27;45434;-60
2021/08/27 10:18:48;;;;;;;;;0.50;0.25;;;;;24.84;35.99;101227.34;5089399;27;46223;-61
2021/08/27 10:21:13;;;;;;;;;2.00;0.75;;;;;24.95;35.79;101228.53;5091786;27;66749;-60
2021/08/27 10:23:39;;;;;;;;;1.50;1.00;;;;;24.95;35.65;101229.34;5090771;27;45833;-61
2021/08/27 10:26:18;;;;;;;;;2.75;1.00;;;;;24.94;35.47;101233.06;5094423;27;45340;-60
2021/08/27 10:28:44;;;;;;;;;2.00;1.00;;;;;24.90;35.66;101237.25;5059579;27;46457;-61
2021/08/27 10:31:09;;;;;;;;;6.50;2.50;;;;;24.89;35.45;101231.03;5094111;27;45539;-61
2021/08/27 10:33:41;;;;;;;;;2.00;1.00;;;;;24.86;35.85;101230.66;5091701;27;45500;-60
2021/08/27 10:36:10;;;;;;;;;1.00;1.00;;;;;24.78;35.68;101239.78;5094504;27;45312;-60
2021/08/27 10:38:40;;;;;;;;;1.00;1.00;;;;;24.60;36.00;101237.75;5093873;27;45555;-60
2021/08/27 10:41:31;;;;;;;;;3.50;1.25;;;;;24.44;35.77;101241.75;5095443;27;45554;-60
2021/08/27 10:44:00;;;;;;;;;2.00;0.25;;;;;24.32;36.03;101243.44;5088916;27;45441;-60
2021/08/27 10:46:44;;;;;;;;;1.00;0.25;;;;;24.24;35.70;101241.81;5095884;27;45621;-60
2021/08/27 10:49:14;;;;;;;;;1.50;1.50;;;;;24.22;35.47;101241.19;5094233;27;45460;-60
2021/08/27 10:51:40;;;;;;;;;1.75;1.00;;;;;24.26;35.93;101237.03;5076952;27;45942;-62
2021/08/27 10:54:07;;;;;;;;;1.25;0.50;;;;;24.33;35.31;101229.81;5094450;27;45399;-61
2021/08/27 10:56:51;;;;;;;;;1.00;0.00;;;;;24.48;35.11;101234.91;5095730;27;45162;-60
2021/08/27 10:59:24;;;;;;;;;2.75;2.00;;;;;24.60;34.78;101227.84;5095959;27;47058;-60
2021/08/27 11:01:58;;;;;;;;;2.00;1.00;;;;;24.67;35.03;101227.81;5094998;27;45416;-61
2021/08/27 11:04:44;;;;;;;;;6.00;2.50;;;;;24.58;35.22;101229.91;5083748;27;45529;-61
2021/08/27 11:07:14;;;;;;;;;2.50;0.25;;;;;24.48;35.50;101226.84;5060675;27;62817;-60
2021/08/27 11:09:39;;;;;;;;;1.50;1.00;;;;;24.30;35.61;101230.22;5062864;27;45410;-60
2021/08/27 11:12:04;;;;;;;;;1.00;1.00;;;;;24.12;36.06;101230.84;5061130;27;67926;-61
2021/08/27 11:14:30;;;;;;;;;1.00;1.00;;;;;23.93;36.20;101233.34;5079950;27;45431;-60
2021/08/27 11:16:59;;;;;;;;;3.00;0.00;;;;;23.74;36.54;101224.28;5059368;27;70184;-59
2021/08/27 11:19:25;;;;;;;;;2.00;1.00;;;;;23.62;36.18;101220.56;5078811;27;45950;-61
2021/08/27 11:21:55;;;;;;;;;1.00;1.00;;;;;23.51;36.89;101230.88;5078903;27;45691;-60
2021/08/27 11:24:22;;;;;;;;;1.25;1.25;;;;;23.45;36.90;101226.34;5082150;27;45455;-61